sensor_id;sensor_type;location;lat;lon;timestamp;temperature;humidity
65034;DHT22;51601;51.356;12.458;2023-02-28T00:00:54;0.80;87.90
65034;DHT22;51601;51.356;12.458;2023-02-28T00:11:39;0.80;88.20
65034;DHT22;51601;51.356;12.458;2023-02-28T00:16:09;0.80;88.40
65034;DHT22;51601;51.356;12.458;2023-02-28T00:20:33;0.70;88.50
65034;DHT22;51601;51.356;12.458;2023-02-28T00:24:58;0.70;89.00
65034;DHT22;51601;51.356;12.458;2023-02-28T00:35:43;0.70;88.80
65034;DHT22;51601;51.356;12.458;2023-02-28T00:40:11;0.70;89.00
65034;DHT22;51601;51.356;12.458;2023-02-28T00:44:35;0.60;89.50
65034;DHT22;51601;51.356;12.458;2023-02-28T00:55:00;0.60;89.90
65034;DHT22;51601;51.356;12.458;2023-02-28T00:59:25;0.50;90.10
65034;DHT22;51601;51.356;12.458;2023-02-28T01:03:50;0.50;90.20
65034;DHT22;51601;51.356;12.458;2023-02-28T01:08:15;0.50;90.30
65034;DHT22;51601;51.356;12.458;2023-02-28T01:12:41;0.50;90.40
65034;DHT22;51601;51.356;12.458;2023-02-28T01:17:06;0.50;90.50
65034;DHT22;51601;51.356;12.458;2023-02-28T01:21:31;0.50;90.50
65034;DHT22;51601;51.356;12.458;2023-02-28T01:25:55;0.50;90.70
65034;DHT22;51601;51.356;12.458;2023-02-28T01:30:21;0.50;90.80
65034;DHT22;51601;51.356;12.458;2023-02-28T01:34:46;0.40;90.70
65034;DHT22;51601;51.356;12.458;2023-02-28T01:39:10;0.40;90.80
65034;DHT22;51601;51.356;12.458;2023-02-28T01:44:01;0.40;91.00
65034;DHT22;51601;51.356;12.458;2023-02-28T01:48:32;0.40;91.20
65034;DHT22;51601;51.356;12.458;2023-02-28T01:52:59;0.40;91.20
65034;DHT22;51601;51.356;12.458;2023-02-28T01:57:30;0.40;91.30
65034;DHT22;51601;51.356;12.458;2023-02-28T02:02:00;0.40;91.20
65034;DHT22;51601;51.356;12.458;2023-02-28T02:06:30;0.40;91.10
65034;DHT22;51601;51.356;12.458;2023-02-28T02:10:56;0.40;91.20
65034;DHT22;51601;51.356;12.458;2023-02-28T02:15:26;0.40;91.40
65034;DHT22;51601;51.356;12.458;2023-02-28T02:25:04;0.30;91.60
65034;DHT22;51601;51.356;12.458;2023-02-28T02:29:53;0.30;91.80
65034;DHT22;51601;51.356;12.458;2023-02-28T02:34:40;0.30;91.80
65034;DHT22;51601;51.356;12.458;2023-02-28T02:39:10;0.20;91.70
65034;DHT22;51601;51.356;12.458;2023-02-28T02:43:42;0.10;91.50
65034;DHT22;51601;51.356;12.458;2023-02-28T02:48:11;0.10;91.40
65034;DHT22;51601;51.356;12.458;2023-02-28T02:52:42;-0.10;91.50
65034;DHT22;51601;51.356;12.458;2023-02-28T02:57:11;-0.20;91.70
65034;DHT22;51601;51.356;12.458;2023-02-28T03:01:37;-0.20;92.00
65034;DHT22;51601;51.356;12.458;2023-02-28T03:06:03;-0.30;92.10
65034;DHT22;51601;51.356;12.458;2023-02-28T03:10:33;-0.40;92.30
65034;DHT22;51601;51.356;12.458;2023-02-28T03:15:05;-0.50;92.60
65034;DHT22;51601;51.356;12.458;2023-02-28T03:19:42;-0.60;92.90
65034;DHT22;51601;51.356;12.458;2023-02-28T03:24:13;-0.60;93.20
65034;DHT22;51601;51.356;12.458;2023-02-28T03:28:43;-0.70;93.50
65034;DHT22;51601;51.356;12.458;2023-02-28T03:33:14;-0.70;93.70
65034;DHT22;51601;51.356;12.458;2023-02-28T03:37:41;-0.70;93.90
65034;DHT22;51601;51.356;12.458;2023-02-28T03:42:09;-0.70;94.10
65034;DHT22;51601;51.356;12.458;2023-02-28T03:46:38;-0.80;94.40
65034;DHT22;51601;51.356;12.458;2023-02-28T03:51:07;-0.70;94.80
65034;DHT22;51601;51.356;12.458;2023-02-28T03:55:36;-0.70;95.20
65034;DHT22;51601;51.356;12.458;2023-02-28T04:00:06;-0.60;95.60
65034;DHT22;51601;51.356;12.458;2023-02-28T04:04:36;-0.60;95.80
65034;DHT22;51601;51.356;12.458;2023-02-28T04:09:00;-0.50;95.90
65034;DHT22;51601;51.356;12.458;2023-02-28T04:13:24;-0.50;96.00
65034;DHT22;51601;51.356;12.458;2023-02-28T04:17:48;-0.40;96.00
65034;DHT22;51601;51.356;12.458;2023-02-28T04:22:13;-0.40;96.00
65034;DHT22;51601;51.356;12.458;2023-02-28T04:26:40;-0.40;96.20
65034;DHT22;51601;51.356;12.458;2023-02-28T04:31:06;-0.40;95.60
65034;DHT22;51601;51.356;12.458;2023-02-28T04:35:30;-0.40;95.30
65034;DHT22;51601;51.356;12.458;2023-02-28T04:39:55;-0.40;95.00
65034;DHT22;51601;51.356;12.458;2023-02-28T04:44:20;-0.50;94.70
65034;DHT22;51601;51.356;12.458;2023-02-28T04:48:44;-0.50;94.70
65034;DHT22;51601;51.356;12.458;2023-02-28T04:53:08;-0.50;94.80
65034;DHT22;51601;51.356;12.458;2023-02-28T04:57:33;-0.50;95.00
65034;DHT22;51601;51.356;12.458;2023-02-28T05:01:57;-0.50;95.00
65034;DHT22;51601;51.356;12.458;2023-02-28T05:06:22;-0.50;94.90
65034;DHT22;51601;51.356;12.458;2023-02-28T05:10:47;-0.50;94.80
65034;DHT22;51601;51.356;12.458;2023-02-28T05:15:13;-0.50;94.60
65034;DHT22;51601;51.356;12.458;2023-02-28T05:19:37;-0.40;94.50
65034;DHT22;51601;51.356;12.458;2023-02-28T05:24:04;-0.40;94.40
65034;DHT22;51601;51.356;12.458;2023-02-28T05:28:28;-0.40;94.30
65034;DHT22;51601;51.356;12.458;2023-02-28T05:32:55;-0.50;94.20
65034;DHT22;51601;51.356;12.458;2023-02-28T05:37:19;-0.40;93.90
65034;DHT22;51601;51.356;12.458;2023-02-28T05:41:44;-0.50;93.70
65034;DHT22;51601;51.356;12.458;2023-02-28T05:46:10;-0.60;93.70
65034;DHT22;51601;51.356;12.458;2023-02-28T05:50:35;-0.60;93.60
65034;DHT22;51601;51.356;12.458;2023-02-28T05:54:59;-0.70;93.50
65034;DHT22;51601;51.356;12.458;2023-02-28T05:59:24;-0.70;93.30
65034;DHT22;51601;51.356;12.458;2023-02-28T06:03:48;-0.80;93.20
65034;DHT22;51601;51.356;12.458;2023-02-28T06:08:13;-0.90;93.30
65034;DHT22;51601;51.356;12.458;2023-02-28T06:12:38;-1.00;93.40
65034;DHT22;51601;51.356;12.458;2023-02-28T06:17:03;-1.10;93.60
65034;DHT22;51601;51.356;12.458;2023-02-28T06:21:27;-1.10;94.10
65034;DHT22;51601;51.356;12.458;2023-02-28T06:25:53;-1.10;94.00
65034;DHT22;51601;51.356;12.458;2023-02-28T06:30:20;-1.10;94.20
65034;DHT22;51601;51.356;12.458;2023-02-28T06:34:47;-1.10;94.40
65034;DHT22;51601;51.356;12.458;2023-02-28T06:39:12;-1.10;94.60
65034;DHT22;51601;51.356;12.458;2023-02-28T06:43:40;-1.10;94.80
65034;DHT22;51601;51.356;12.458;2023-02-28T06:48:05;-1.00;94.90
65034;DHT22;51601;51.356;12.458;2023-02-28T06:52:29;-1.00;95.10
65034;DHT22;51601;51.356;12.458;2023-02-28T06:56:53;-1.00;95.20
65034;DHT22;51601;51.356;12.458;2023-02-28T07:01:19;-0.90;95.30
65034;DHT22;51601;51.356;12.458;2023-02-28T07:05:45;-0.90;95.30
65034;DHT22;51601;51.356;12.458;2023-02-28T07:10:10;-0.80;95.20
65034;DHT22;51601;51.356;12.458;2023-02-28T07:14:37;-0.70;95.20
65034;DHT22;51601;51.356;12.458;2023-02-28T07:19:02;-0.60;95.00
65034;DHT22;51601;51.356;12.458;2023-02-28T07:23:26;-0.50;94.80
65034;DHT22;51601;51.356;12.458;2023-02-28T07:27:51;0.10;96.90
65034;DHT22;51601;51.356;12.458;2023-02-28T07:32:15;1.30;96.30
65034;DHT22;51601;51.356;12.458;2023-02-28T07:36:40;2.80;92.30
65034;DHT22;51601;51.356;12.458;2023-02-28T07:41:05;4.20;84.30
65034;DHT22;51601;51.356;12.458;2023-02-28T07:45:29;5.00;76.80
65034;DHT22;51601;51.356;12.458;2023-02-28T07:49:54;5.50;75.00
65034;DHT22;51601;51.356;12.458;2023-02-28T07:54:19;6.50;76.50
65034;DHT22;51601;51.356;12.458;2023-02-28T07:58:43;7.60;72.40
65034;DHT22;51601;51.356;12.458;2023-02-28T08:03:08;8.50;69.00
65034;DHT22;51601;51.356;12.458;2023-02-28T08:07:35;9.20;69.10
65034;DHT22;51601;51.356;12.458;2023-02-28T08:12:00;9.90;65.90
65034;DHT22;51601;51.356;12.458;2023-02-28T08:16:24;10.40;60.60
65034;DHT22;51601;51.356;12.458;2023-02-28T08:20:48;10.60;57.20
65034;DHT22;51601;51.356;12.458;2023-02-28T08:25:13;10.70;54.10
65034;DHT22;51601;51.356;12.458;2023-02-28T08:29:38;10.80;55.00
65034;DHT22;51601;51.356;12.458;2023-02-28T08:34:05;11.00;50.40
65034;DHT22;51601;51.356;12.458;2023-02-28T08:38:29;11.10;48.30
65034;DHT22;51601;51.356;12.458;2023-02-28T08:42:53;11.20;47.30
65034;DHT22;51601;51.356;12.458;2023-02-28T08:47:19;11.30;46.20
65034;DHT22;51601;51.356;12.458;2023-02-28T08:51:43;11.30;45.00
65034;DHT22;51601;51.356;12.458;2023-02-28T08:56:10;11.30;44.40
65034;DHT22;51601;51.356;12.458;2023-02-28T09:00:34;11.30;43.70
65034;DHT22;51601;51.356;12.458;2023-02-28T09:05:00;11.20;43.80
65034;DHT22;51601;51.356;12.458;2023-02-28T09:09:25;11.20;43.10
65034;DHT22;51601;51.356;12.458;2023-02-28T09:13:50;11.20;41.00
65034;DHT22;51601;51.356;12.458;2023-02-28T09:18:14;10.90;40.80
65034;DHT22;51601;51.356;12.458;2023-02-28T09:22:40;10.50;40.60
65034;DHT22;51601;51.356;12.458;2023-02-28T09:27:04;10.10;40.60
65034;DHT22;51601;51.356;12.458;2023-02-28T09:31:28;9.50;41.30
65034;DHT22;51601;51.356;12.458;2023-02-28T09:35:58;9.10;42.50
65034;DHT22;51601;51.356;12.458;2023-02-28T09:40:25;9.00;42.90
65034;DHT22;51601;51.356;12.458;2023-02-28T09:44:50;8.60;42.50
65034;DHT22;51601;51.356;12.458;2023-02-28T09:49:17;7.90;43.60
65034;DHT22;51601;51.356;12.458;2023-02-28T09:53:43;7.70;44.10
65034;DHT22;51601;51.356;12.458;2023-02-28T09:58:20;7.70;44.70
65034;DHT22;51601;51.356;12.458;2023-02-28T10:08:01;7.30;44.50
65034;DHT22;51601;51.356;12.458;2023-02-28T10:12:28;7.30;44.10
65034;DHT22;51601;51.356;12.458;2023-02-28T10:17:00;7.30;43.30
65034;DHT22;51601;51.356;12.458;2023-02-28T10:21:31;7.10;44.20
65034;DHT22;51601;51.356;12.458;2023-02-28T10:26:00;7.30;45.00
65034;DHT22;51601;51.356;12.458;2023-02-28T10:30:27;7.40;44.10
65034;DHT22;51601;51.356;12.458;2023-02-28T10:34:55;7.70;44.90
65034;DHT22;51601;51.356;12.458;2023-02-28T10:39:45;8.20;44.80
65034;DHT22;51601;51.356;12.458;2023-02-28T10:44:15;8.80;44.70
65034;DHT22;51601;51.356;12.458;2023-02-28T10:48:43;9.20;42.60
65034;DHT22;51601;51.356;12.458;2023-02-28T10:53:17;9.30;42.70
65034;DHT22;51601;51.356;12.458;2023-02-28T10:57:46;9.50;43.10
65034;DHT22;51601;51.356;12.458;2023-02-28T11:02:32;9.60;42.20
65034;DHT22;51601;51.356;12.458;2023-02-28T11:07:03;9.50;42.00
65034;DHT22;51601;51.356;12.458;2023-02-28T11:11:31;9.40;41.40
65034;DHT22;51601;51.356;12.458;2023-02-28T11:16:07;9.20;43.10
65034;DHT22;51601;51.356;12.458;2023-02-28T11:20:34;9.10;42.90
65034;DHT22;51601;51.356;12.458;2023-02-28T11:25:00;9.10;43.40
65034;DHT22;51601;51.356;12.458;2023-02-28T11:29:29;9.20;43.90
65034;DHT22;51601;51.356;12.458;2023-02-28T11:33:54;9.10;43.90
65034;DHT22;51601;51.356;12.458;2023-02-28T11:38:18;8.60;44.30
65034;DHT22;51601;51.356;12.458;2023-02-28T11:42:58;8.30;45.20
65034;DHT22;51601;51.356;12.458;2023-02-28T11:47:32;7.90;45.40
65034;DHT22;51601;51.356;12.458;2023-02-28T11:52:01;7.30;46.90
65034;DHT22;51601;51.356;12.458;2023-02-28T11:56:31;6.80;47.90
65034;DHT22;51601;51.356;12.458;2023-02-28T12:01:24;6.60;47.30
65034;DHT22;51601;51.356;12.458;2023-02-28T12:05:56;6.50;47.80
65034;DHT22;51601;51.356;12.458;2023-02-28T12:10:24;6.40;48.40
65034;DHT22;51601;51.356;12.458;2023-02-28T12:15:32;6.40;48.70
65034;DHT22;51601;51.356;12.458;2023-02-28T12:20:05;6.40;48.90
65034;DHT22;51601;51.356;12.458;2023-02-28T12:24:54;6.20;48.90
65034;DHT22;51601;51.356;12.458;2023-02-28T12:29:24;6.20;49.50
65034;DHT22;51601;51.356;12.458;2023-02-28T12:33:53;6.20;49.80
65034;DHT22;51601;51.356;12.458;2023-02-28T12:38:21;6.20;50.00
65034;DHT22;51601;51.356;12.458;2023-02-28T12:42:49;6.10;50.10
65034;DHT22;51601;51.356;12.458;2023-02-28T12:47:17;5.90;50.30
65034;DHT22;51601;51.356;12.458;2023-02-28T12:51:41;5.60;50.90
65034;DHT22;51601;51.356;12.458;2023-02-28T12:56:12;5.30;51.90
65034;DHT22;51601;51.356;12.458;2023-02-28T13:00:48;5.00;52.30
65034;DHT22;51601;51.356;12.458;2023-02-28T13:05:33;4.80;53.20
65034;DHT22;51601;51.356;12.458;2023-02-28T13:10:04;4.50;54.10
65034;DHT22;51601;51.356;12.458;2023-02-28T13:14:36;4.50;54.80
65034;DHT22;51601;51.356;12.458;2023-02-28T13:19:11;4.40;54.60
65034;DHT22;51601;51.356;12.458;2023-02-28T13:23:57;4.40;54.60
65034;DHT22;51601;51.356;12.458;2023-02-28T13:33:31;4.40;54.80
65034;DHT22;51601;51.356;12.458;2023-02-28T13:38:22;4.30;54.90
65034;DHT22;51601;51.356;12.458;2023-02-28T13:42:47;4.30;55.20
65034;DHT22;51601;51.356;12.458;2023-02-28T13:47:27;4.30;55.40
65034;DHT22;51601;51.356;12.458;2023-02-28T13:51:52;4.30;55.60
65034;DHT22;51601;51.356;12.458;2023-02-28T13:56:31;4.30;55.70
65034;DHT22;51601;51.356;12.458;2023-02-28T14:01:12;4.20;55.90
65034;DHT22;51601;51.356;12.458;2023-02-28T14:05:39;4.20;56.20
65034;DHT22;51601;51.356;12.458;2023-02-28T14:10:05;4.30;56.20
65034;DHT22;51601;51.356;12.458;2023-02-28T14:14:54;4.30;56.20
65034;DHT22;51601;51.356;12.458;2023-02-28T14:19:25;4.30;56.50
65034;DHT22;51601;51.356;12.458;2023-02-28T14:24:10;4.30;56.70
65034;DHT22;51601;51.356;12.458;2023-02-28T14:28:52;4.30;56.20
65034;DHT22;51601;51.356;12.458;2023-02-28T14:33:27;4.20;56.80
65034;DHT22;51601;51.356;12.458;2023-02-28T14:37:56;4.20;57.10
65034;DHT22;51601;51.356;12.458;2023-02-28T14:42:32;4.30;57.60
65034;DHT22;51601;51.356;12.458;2023-02-28T14:46:58;4.30;57.40
65034;DHT22;51601;51.356;12.458;2023-02-28T14:51:27;4.20;57.40
65034;DHT22;51601;51.356;12.458;2023-02-28T14:55:52;4.20;57.10
65034;DHT22;51601;51.356;12.458;2023-02-28T15:00:22;4.20;57.20
65034;DHT22;51601;51.356;12.458;2023-02-28T15:04:53;4.20;57.40
65034;DHT22;51601;51.356;12.458;2023-02-28T15:09:19;4.20;57.40
65034;DHT22;51601;51.356;12.458;2023-02-28T15:13:46;4.20;57.70
65034;DHT22;51601;51.356;12.458;2023-02-28T15:18:18;4.20;57.60
65034;DHT22;51601;51.356;12.458;2023-02-28T15:22:47;4.10;58.00
65034;DHT22;51601;51.356;12.458;2023-02-28T15:27:20;4.10;58.20
65034;DHT22;51601;51.356;12.458;2023-02-28T15:31:48;4.10;58.00
65034;DHT22;51601;51.356;12.458;2023-02-28T15:36:19;4.10;57.90
65034;DHT22;51601;51.356;12.458;2023-02-28T15:40:49;4.00;58.20
65034;DHT22;51601;51.356;12.458;2023-02-28T15:45:33;4.00;58.20
65034;DHT22;51601;51.356;12.458;2023-02-28T15:50:02;3.90;58.20
65034;DHT22;51601;51.356;12.458;2023-02-28T15:54:29;3.90;59.00
65034;DHT22;51601;51.356;12.458;2023-02-28T15:58:55;3.90;58.90
65034;DHT22;51601;51.356;12.458;2023-02-28T16:03:34;3.80;59.00
65034;DHT22;51601;51.356;12.458;2023-02-28T16:08:11;3.70;59.20
65034;DHT22;51601;51.356;12.458;2023-02-28T16:12:38;3.70;59.70
65034;DHT22;51601;51.356;12.458;2023-02-28T16:17:04;3.50;60.30
65034;DHT22;51601;51.356;12.458;2023-02-28T16:21:31;3.50;60.90
65034;DHT22;51601;51.356;12.458;2023-02-28T16:25:56;3.40;61.30
65034;DHT22;51601;51.356;12.458;2023-02-28T16:30:22;3.40;61.70
65034;DHT22;51601;51.356;12.458;2023-02-28T16:34:47;3.30;61.90
65034;DHT22;51601;51.356;12.458;2023-02-28T16:39:12;3.10;62.20
65034;DHT22;51601;51.356;12.458;2023-02-28T16:43:38;3.10;62.60
65034;DHT22;51601;51.356;12.458;2023-02-28T16:48:02;3.00;63.00
65034;DHT22;51601;51.356;12.458;2023-02-28T16:52:26;2.90;63.40
65034;DHT22;51601;51.356;12.458;2023-02-28T16:56:52;2.80;63.80
65034;DHT22;51601;51.356;12.458;2023-02-28T17:01:16;2.70;64.20
65034;DHT22;51601;51.356;12.458;2023-02-28T17:05:44;2.50;64.60
65034;DHT22;51601;51.356;12.458;2023-02-28T17:10:14;2.40;65.00
65034;DHT22;51601;51.356;12.458;2023-02-28T17:14:40;2.30;65.40
65034;DHT22;51601;51.356;12.458;2023-02-28T17:19:06;2.20;65.80
65034;DHT22;51601;51.356;12.458;2023-02-28T17:23:30;2.10;66.20
65034;DHT22;51601;51.356;12.458;2023-02-28T17:27:54;2.00;66.50
65034;DHT22;51601;51.356;12.458;2023-02-28T17:32:13;1.90;66.90
65034;DHT22;51601;51.356;12.458;2023-02-28T17:36:40;1.80;67.20
65034;DHT22;51601;51.356;12.458;2023-02-28T17:41:04;1.70;67.50
65034;DHT22;51601;51.356;12.458;2023-02-28T17:45:28;1.60;67.90
65034;DHT22;51601;51.356;12.458;2023-02-28T17:49:56;1.60;68.20
65034;DHT22;51601;51.356;12.458;2023-02-28T17:54:20;1.50;68.30
65034;DHT22;51601;51.356;12.458;2023-02-28T17:58:44;1.40;68.50
65034;DHT22;51601;51.356;12.458;2023-02-28T18:03:08;1.30;68.70
65034;DHT22;51601;51.356;12.458;2023-02-28T18:07:35;1.20;69.10
65034;DHT22;51601;51.356;12.458;2023-02-28T18:12:00;1.00;69.30
65034;DHT22;51601;51.356;12.458;2023-02-28T18:16:24;1.00;70.50
65034;DHT22;51601;51.356;12.458;2023-02-28T18:20:49;0.90;70.20
65034;DHT22;51601;51.356;12.458;2023-02-28T18:25:12;0.80;70.50
65034;DHT22;51601;51.356;12.458;2023-02-28T18:29:34;0.70;70.60
65034;DHT22;51601;51.356;12.458;2023-02-28T18:33:55;0.60;71.10
65034;DHT22;51601;51.356;12.458;2023-02-28T18:38:15;0.60;71.50
65034;DHT22;51601;51.356;12.458;2023-02-28T18:42:36;0.50;71.60
65034;DHT22;51601;51.356;12.458;2023-02-28T18:46:55;0.50;72.00
65034;DHT22;51601;51.356;12.458;2023-02-28T18:51:16;0.50;72.30
65034;DHT22;51601;51.356;12.458;2023-02-28T18:55:34;0.40;72.70
65034;DHT22;51601;51.356;12.458;2023-02-28T18:59:54;0.50;72.90
65034;DHT22;51601;51.356;12.458;2023-02-28T19:04:14;0.50;73.20
65034;DHT22;51601;51.356;12.458;2023-02-28T19:08:32;0.50;73.20
65034;DHT22;51601;51.356;12.458;2023-02-28T19:12:50;0.50;73.30
65034;DHT22;51601;51.356;12.458;2023-02-28T19:17:09;0.50;73.50
65034;DHT22;51601;51.356;12.458;2023-02-28T19:21:29;0.50;73.60
65034;DHT22;51601;51.356;12.458;2023-02-28T19:25:47;0.50;73.50
65034;DHT22;51601;51.356;12.458;2023-02-28T19:30:06;0.40;73.50
65034;DHT22;51601;51.356;12.458;2023-02-28T19:34:27;0.30;73.50
65034;DHT22;51601;51.356;12.458;2023-02-28T19:38:48;0.20;73.60
65034;DHT22;51601;51.356;12.458;2023-02-28T19:43:06;0.10;73.90
65034;DHT22;51601;51.356;12.458;2023-02-28T19:47:23;0.00;74.00
65034;DHT22;51601;51.356;12.458;2023-02-28T19:51:45;0.00;74.30
65034;DHT22;51601;51.356;12.458;2023-02-28T19:56:03;-0.10;74.50
65034;DHT22;51601;51.356;12.458;2023-02-28T20:00:21;-0.20;74.70
65034;DHT22;51601;51.356;12.458;2023-02-28T20:04:39;-0.30;74.90
65034;DHT22;51601;51.356;12.458;2023-02-28T20:08:58;-0.40;75.30
65034;DHT22;51601;51.356;12.458;2023-02-28T20:13:18;-0.50;75.50
65034;DHT22;51601;51.356;12.458;2023-02-28T20:17:42;-0.50;75.80
65034;DHT22;51601;51.356;12.458;2023-02-28T20:22:03;-0.60;76.10
65034;DHT22;51601;51.356;12.458;2023-02-28T20:26:26;-0.70;76.50
65034;DHT22;51601;51.356;12.458;2023-02-28T20:30:46;-0.70;76.60
65034;DHT22;51601;51.356;12.458;2023-02-28T20:35:08;-0.70;76.90
65034;DHT22;51601;51.356;12.458;2023-02-28T20:39:28;-0.80;77.10
65034;DHT22;51601;51.356;12.458;2023-02-28T20:43:52;-0.80;77.30
65034;DHT22;51601;51.356;12.458;2023-02-28T20:48:10;-0.90;77.50
65034;DHT22;51601;51.356;12.458;2023-02-28T20:52:28;-0.90;77.90
65034;DHT22;51601;51.356;12.458;2023-02-28T20:56:46;-0.90;78.10
65034;DHT22;51601;51.356;12.458;2023-02-28T21:01:07;-1.00;78.30
65034;DHT22;51601;51.356;12.458;2023-02-28T21:05:28;-1.00;78.60
65034;DHT22;51601;51.356;12.458;2023-02-28T21:09:46;-1.00;78.80
65034;DHT22;51601;51.356;12.458;2023-02-28T21:14:06;-1.10;79.00
65034;DHT22;51601;51.356;12.458;2023-02-28T21:18:28;-1.10;79.40
65034;DHT22;51601;51.356;12.458;2023-02-28T21:22:47;-1.20;79.70
65034;DHT22;51601;51.356;12.458;2023-02-28T21:27:06;-1.20;80.10
65034;DHT22;51601;51.356;12.458;2023-02-28T21:31:27;-1.20;80.50
65034;DHT22;51601;51.356;12.458;2023-02-28T21:35:49;-1.10;80.90
65034;DHT22;51601;51.356;12.458;2023-02-28T21:40:09;-1.20;81.10
65034;DHT22;51601;51.356;12.458;2023-02-28T21:44:30;-1.10;81.40
65034;DHT22;51601;51.356;12.458;2023-02-28T21:48:50;-1.10;81.60
65034;DHT22;51601;51.356;12.458;2023-02-28T21:53:10;-1.20;81.70
65034;DHT22;51601;51.356;12.458;2023-02-28T21:57:30;-1.20;81.80
65034;DHT22;51601;51.356;12.458;2023-02-28T22:01:49;-1.30;81.90
65034;DHT22;51601;51.356;12.458;2023-02-28T22:06:10;-1.30;82.20
65034;DHT22;51601;51.356;12.458;2023-02-28T22:10:33;-1.30;82.40
65034;DHT22;51601;51.356;12.458;2023-02-28T22:14:51;-1.40;82.80
65034;DHT22;51601;51.356;12.458;2023-02-28T22:19:09;-1.30;83.20
65034;DHT22;51601;51.356;12.458;2023-02-28T22:23:27;-1.40;83.40
65034;DHT22;51601;51.356;12.458;2023-02-28T22:27:47;-1.40;83.70
65034;DHT22;51601;51.356;12.458;2023-02-28T22:32:07;-1.40;84.00
65034;DHT22;51601;51.356;12.458;2023-02-28T22:36:28;-1.50;84.20
65034;DHT22;51601;51.356;12.458;2023-02-28T22:40:49;-1.50;84.60
65034;DHT22;51601;51.356;12.458;2023-02-28T22:45:09;-1.40;84.90
65034;DHT22;51601;51.356;12.458;2023-02-28T22:49:28;-1.50;85.10
65034;DHT22;51601;51.356;12.458;2023-02-28T22:53:47;-1.50;85.50
65034;DHT22;51601;51.356;12.458;2023-02-28T22:58:07;-1.50;85.90
65034;DHT22;51601;51.356;12.458;2023-02-28T23:02:27;-1.50;85.90
65034;DHT22;51601;51.356;12.458;2023-02-28T23:06:46;-1.50;86.20
65034;DHT22;51601;51.356;12.458;2023-02-28T23:11:04;-1.50;86.30
65034;DHT22;51601;51.356;12.458;2023-02-28T23:15:22;-1.60;86.80
65034;DHT22;51601;51.356;12.458;2023-02-28T23:19:42;-1.50;87.10
65034;DHT22;51601;51.356;12.458;2023-02-28T23:24:03;-1.60;87.30
65034;DHT22;51601;51.356;12.458;2023-02-28T23:28:26;-1.60;87.50
65034;DHT22;51601;51.356;12.458;2023-02-28T23:32:44;-1.60;87.80
65034;DHT22;51601;51.356;12.458;2023-02-28T23:37:03;-1.60;87.90
65034;DHT22;51601;51.356;12.458;2023-02-28T23:41:23;-1.60;88.10
65034;DHT22;51601;51.356;12.458;2023-02-28T23:45:54;-1.60;88.50
65034;DHT22;51601;51.356;12.458;2023-02-28T23:50:11;-1.60;88.90
65034;DHT22;51601;51.356;12.458;2023-02-28T23:54:31;-1.60;89.20
65034;DHT22;51601;51.356;12.458;2023-02-28T23:58:51;-1.60;89.60
